Time;durP1;ratioP1;P1;durP2;ratioP2;P2;SDS_P1;SDS_P2;PMS_P1;PMS_P2;Temp;Humidity;BMP_temperature;BMP_pressure;BME280_temperature;BME280_humidity;BME280_pressure;Samples;Min_cycle;Max_cycle;Signal;HPM_P1;HPM_P2
2022/10/28 00:00:30;;;;;;;25.27;16.80;;;15.50;99.90;;;;;;5051398;28;20059;-70
2022/10/28 00:03:00;;;;;;;19.63;16.73;;;15.50;99.90;;;;;;5053266;28;20441;-72
2022/10/28 00:05:32;;;;;;;18.10;16.45;;;15.70;99.90;;;;;;5055143;28;20040;-72
2022/10/28 00:07:59;;;;;;;20.15;17.25;;;15.70;99.90;;;;;;5055050;28;20054;-72
2022/10/28 00:10:26;;;;;;;21.13;15.95;;;15.60;99.90;;;;;;5055093;28;20040;-72
2022/10/28 00:12:53;;;;;;;19.48;15.95;;;15.50;99.90;;;;;;5055079;28;20360;-72
2022/10/28 00:15:19;;;;;;;17.80;15.95;;;15.40;99.90;;;;;;5046661;28;20045;-73
2022/10/28 00:17:46;;;;;;;23.35;16.73;;;15.40;99.90;;;;;;5052004;28;20600;-73
2022/10/28 00:20:14;;;;;;;22.02;16.45;;;15.40;99.90;;;;;;5053358;28;20040;-71
2022/10/28 00:22:42;;;;;;;24.15;15.73;;;15.40;99.90;;;;;;5055241;28;20052;-69
2022/10/28 00:25:09;;;;;;;18.30;16.42;;;15.40;99.90;;;;;;5052500;28;20147;-72
2022/10/28 00:27:36;;;;;;;21.40;16.40;;;15.30;99.90;;;;;;5038946;28;20135;-73
2022/10/28 00:30:03;;;;;;;18.65;16.35;;;15.20;99.90;;;;;;5049354;28;20144;-71
2022/10/28 00:32:31;;;;;;;21.52;17.33;;;15.30;99.90;;;;;;5056148;28;20044;-72
2022/10/28 00:34:57;;;;;;;19.75;16.90;;;15.40;99.90;;;;;;5053391;28;20374;-71
2022/10/28 00:37:24;;;;;;;20.67;15.85;;;15.50;99.90;;;;;;5053779;28;20032;-70
2022/10/28 00:39:51;;;;;;;19.02;16.55;;;15.50;99.90;;;;;;5051905;28;20064;-71
2022/10/28 00:42:21;;;;;;;17.88;16.02;;;15.50;99.90;;;;;;5051698;28;20525;-70
2022/10/28 00:45:00;;;;;;;18.27;16.45;;;15.60;99.90;;;;;;5056181;28;20181;-70
2022/10/28 00:47:42;;;;;;;19.48;17.20;;;15.60;99.90;;;;;;5070038;28;20074;-70
2022/10/28 00:50:14;;;;;;;20.20;17.08;;;15.50;99.90;;;;;;5050856;28;20574;-70
2022/10/28 00:52:45;;;;;;;19.35;17.15;;;15.60;99.90;;;;;;5054598;28;20084;-70
2022/10/28 00:55:16;;;;;;;30.05;17.92;;;15.60;99.90;;;;;;5050582;28;20484;-70
2022/10/28 00:57:45;;;;;;;20.90;18.13;;;15.70;99.90;;;;;;5044441;28;20041;-70
2022/10/28 01:00:12;;;;;;;20.85;18.23;;;15.80;99.90;;;;;;5049238;28;20135;-71
2022/10/28 01:02:46;;;;;;;19.10;17.02;;;15.80;99.90;;;;;;5046045;28;20047;-71
2022/10/28 01:05:17;;;;;;;23.63;19.80;;;15.90;99.90;;;;;;5052617;28;20494;-71
2022/10/28 01:07:44;;;;;;;21.00;18.75;;;15.90;99.90;;;;;;5057647;28;20076;-70
2022/10/28 01:10:13;;;;;;;24.90;19.40;;;15.90;99.90;;;;;;5069148;28;20605;-72
2022/10/28 01:12:46;;;;;;;21.60;19.45;;;15.90;99.90;;;;;;5056092;28;20045;-71
2022/10/28 01:15:32;;;;;;;22.90;18.83;;;15.80;99.90;;;;;;5053787;28;20063;-71
2022/10/28 01:18:13;;;;;;;21.42;19.17;;;15.80;99.90;;;;;;5054839;28;20062;-71
2022/10/28 01:21:01;;;;;;;24.30;18.73;;;15.80;99.90;;;;;;5050036;28;20502;-71
2022/10/28 01:23:34;;;;;;;25.60;18.48;;;15.80;99.90;;;;;;5058748;28;20037;-71
2022/10/28 01:26:19;;;;;;;21.20;19.13;;;15.90;99.90;;;;;;5054835;28;20139;-71
2022/10/28 01:29:07;;;;;;;19.48;17.88;;;16.00;99.90;;;;;;5058150;28;20048;-71
2022/10/28 01:31:34;;;;;;;20.20;18.27;;;15.90;99.90;;;;;;5058278;28;20037;-71
2022/10/28 01:34:18;;;;;;;19.23;17.17;;;15.90;99.90;;;;;;5054822;28;20304;-71
2022/10/28 01:36:58;;;;;;;20.08;17.98;;;16.00;99.90;;;;;;5054101;28;20041;-71
2022/10/28 01:39:38;;;;;;;18.95;17.20;;;16.00;99.90;;;;;;5057666;28;20183;-72
2022/10/28 01:42:10;;;;;;;20.38;18.27;;;16.00;99.90;;;;;;5053473;28;20494;-73
2022/10/28 01:45:09;;;;;;;21.25;19.02;;;15.90;99.90;;;;;;5060200;28;20060;-72
2022/10/28 01:47:59;;;;;;;20.25;18.10;;;16.00;99.90;;;;;;5030362;28;20044;-72
2022/10/28 01:50:29;;;;;;;23.23;19.20;;;16.00;99.90;;;;;;5056163;28;20075;-71
2022/10/28 01:52:59;;;;;;;22.25;17.48;;;16.00;99.90;;;;;;5059163;28;20072;-72
2022/10/28 01:55:32;;;;;;;22.77;17.95;;;16.00;99.90;;;;;;5053386;28;20048;-71
2022/10/28 01:58:00;;;;;;;19.58;17.67;;;15.90;99.90;;;;;;5054446;28;20506;-72
2022/10/28 02:00:29;;;;;;;22.88;17.33;;;15.90;99.90;;;;;;5053280;28;20057;-71
2022/10/28 02:02:56;;;;;;;19.60;17.48;;;15.80;99.90;;;;;;5054473;28;20502;-71
2022/10/28 02:05:51;;;;;;;19.75;16.58;;;15.80;99.90;;;;;;5053009;28;20037;-71
2022/10/28 02:08:40;;;;;;;19.65;17.55;;;15.60;99.90;;;;;;5056241;28;20544;-71
2022/10/28 02:11:20;;;;;;;20.85;16.55;;;15.60;99.90;;;;;;5054281;28;20543;-70
2022/10/28 02:14:10;;;;;;;17.95;16.27;;;15.50;99.90;;;;;;5052157;28;20056;-72
2022/10/28 02:16:48;;;;;;;24.08;16.45;;;15.50;99.90;;;;;;5053162;28;20045;-72
2022/10/28 02:19:23;;;;;;;21.90;17.30;;;15.50;99.90;;;;;;5070194;28;20470;-72
2022/10/28 02:22:19;;;;;;;19.17;16.58;;;15.50;99.90;;;;;;5056958;28;20037;-72
2022/10/28 02:25:11;;;;;;;18.88;17.00;;;15.50;99.90;;;;;;5053635;28;20041;-70
2022/10/28 02:27:52;;;;;;;21.45;17.20;;;15.60;99.90;;;;;;5057541;28;20047;-71
2022/10/28 02:30:23;;;;;;;20.27;18.33;;;15.70;99.90;;;;;;5069046;28;20048;-70
2022/10/28 02:32:54;;;;;;;20.58;17.60;;;15.70;99.90;;;;;;5072800;28;20056;-71
2022/10/28 02:35:34;;;;;;;21.35;17.70;;;15.70;99.90;;;;;;5055590;28;20140;-70
2022/10/28 02:38:06;;;;;;;19.92;17.05;;;15.70;99.90;;;;;;5055905;28;20052;-70
2022/10/28 02:40:34;;;;;;;21.70;16.23;;;15.70;99.90;;;;;;5055460;28;20040;-70
2022/10/28 02:43:05;;;;;;;22.92;16.63;;;15.70;99.90;;;;;;5080853;22;20507;-68
2022/10/28 02:45:40;;;;;;;22.65;16.10;;;15.80;99.90;;;;;;5033305;28;20041;-68
2022/10/28 02:48:18;;;;;;;24.15;16.40;;;15.70;99.90;;;;;;5035954;28;20052;-68
2022/10/28 02:50:52;;;;;;;27.88;16.15;;;15.60;99.90;;;;;;5038133;28;20051;-71
2022/10/28 02:53:25;;;;;;;16.83;15.13;;;15.70;99.90;;;;;;5020475;28;20049;-70
2022/10/28 02:56:00;;;;;;;26.30;17.65;;;15.70;99.90;;;;;;5014764;28;20049;-70
2022/10/28 02:58:26;;;;;;;20.83;16.88;;;15.80;99.90;;;;;;5014658;28;20038;-70
2022/10/28 03:00:53;;;;;;;19.88;17.25;;;15.70;99.90;;;;;;4999140;28;20053;-69
2022/10/28 03:03:20;;;;;;;20.13;17.48;;;15.80;99.90;;;;;;5015204;28;20455;-69
2022/10/28 03:05:47;;;;;;;23.67;17.70;;;15.80;99.90;;;;;;5017173;28;20041;-70
2022/10/28 03:08:13;;;;;;;24.98;18.75;;;15.80;99.90;;;;;;5014401;28;20042;-69
2022/10/28 03:10:40;;;;;;;21.55;18.52;;;15.80;99.90;;;;;;5016814;28;20200;-70
2022/10/28 03:13:06;;;;;;;22.20;17.50;;;15.90;99.90;;;;;;5023387;28;20538;-69
2022/10/28 03:15:33;;;;;;;23.83;17.75;;;15.80;99.90;;;;;;5023133;28;20041;-69
2022/10/28 03:18:00;;;;;;;27.30;18.27;;;15.80;99.90;;;;;;5023226;28;20038;-70
2022/10/28 03:20:26;;;;;;;20.48;18.05;;;15.80;99.90;;;;;;5013926;28;20519;-69
2022/10/28 03:22:53;;;;;;;19.40;17.55;;;15.90;99.90;;;;;;5016094;28;20041;-69
2022/10/28 03:25:20;;;;;;;24.10;18.38;;;15.90;99.90;;;;;;5017841;28;20136;-70
2022/10/28 03:27:46;;;;;;;21.80;17.80;;;15.90;99.90;;;;;;5019681;28;20296;-70
2022/10/28 03:30:13;;;;;;;18.95;17.35;;;15.90;99.90;;;;;;5007238;28;20060;-69
2022/10/28 03:32:41;;;;;;;19.58;17.65;;;15.90;99.90;;;;;;5011755;28;20051;-70
2022/10/28 03:35:09;;;;;;;24.73;17.00;;;15.90;99.90;;;;;;5009305;28;20508;-69
2022/10/28 03:37:35;;;;;;;20.95;18.80;;;15.90;99.90;;;;;;5019504;28;20403;-70
2022/10/28 03:40:06;;;;;;;24.98;18.95;;;16.00;99.90;;;;;;5015090;28;20037;-69
2022/10/28 03:42:33;;;;;;;19.60;17.58;;;16.10;99.90;;;;;;5011006;28;20463;-70
2022/10/28 03:45:05;;;;;;;22.13;18.60;;;16.20;99.90;;;;;;5014573;28;20042;-69
2022/10/28 03:47:32;;;;;;;22.52;19.55;;;16.20;99.90;;;;;;5014892;28;20282;-70
2022/10/28 03:49:59;;;;;;;20.48;18.73;;;16.30;99.90;;;;;;5015127;28;20060;-69
2022/10/28 03:52:26;;;;;;;28.65;20.33;;;16.40;99.90;;;;;;5013093;28;20029;-67
2022/10/28 03:54:52;;;;;;;27.60;19.38;;;16.40;99.90;;;;;;5014642;28;20436;-68
2022/10/28 03:57:19;;;;;;;20.50;18.90;;;16.50;99.90;;;;;;5013671;28;20033;-70
2022/10/28 03:59:46;;;;;;;21.38;19.38;;;16.60;99.90;;;;;;5016786;28;20045;-70
2022/10/28 04:02:14;;;;;;;21.67;19.88;;;16.70;99.90;;;;;;5013105;28;20049;-69
2022/10/28 04:04:41;;;;;;;21.85;19.80;;;16.70;99.90;;;;;;5012895;28;20045;-70
2022/10/28 04:07:08;;;;;;;25.42;20.23;;;16.70;99.90;;;;;;5014386;28;20045;-69
2022/10/28 04:09:34;;;;;;;23.40;20.90;;;16.70;99.90;;;;;;5015645;28;20511;-69
2022/10/28 04:12:01;;;;;;;21.30;19.20;;;16.70;99.90;;;;;;5013330;28;20045;-70
2022/10/28 04:14:28;;;;;;;26.30;19.48;;;16.70;99.90;;;;;;5014085;28;20049;-69
2022/10/28 04:16:54;;;;;;;26.27;19.77;;;16.70;99.90;;;;;;5016677;28;20064;-70
2022/10/28 04:19:21;;;;;;;21.67;19.52;;;16.70;99.90;;;;;;5012666;28;20049;-70
2022/10/28 04:21:47;;;;;;;22.25;20.00;;;16.70;99.90;;;;;;5015299;28;20136;-70
2022/10/28 04:24:14;;;;;;;22.52;20.10;;;16.70;99.90;;;;;;5012521;28;20462;-69
2022/10/28 04:26:41;;;;;;;20.80;18.77;;;16.70;99.90;;;;;;5015651;28;20484;-69
2022/10/28 04:29:07;;;;;;;21.80;18.70;;;16.80;99.90;;;;;;5018558;28;20056;-68
2022/10/28 04:31:34;;;;;;;21.02;19.08;;;16.80;99.90;;;;;;5010805;28;22390;-71
2022/10/28 04:34:01;;;;;;;22.02;19.50;;;16.80;99.90;;;;;;5013239;28;20061;-69
2022/10/28 04:36:27;;;;;;;21.00;19.10;;;16.80;99.90;;;;;;5015598;28;20041;-69
2022/10/28 04:38:54;;;;;;;26.65;20.25;;;16.90;99.90;;;;;;5018665;28;20033;-69
2022/10/28 04:41:20;;;;;;;22.55;20.40;;;16.90;99.90;;;;;;5011689;28;20041;-69
2022/10/28 04:43:47;;;;;;;21.52;19.75;;;16.90;99.90;;;;;;5015303;28;20157;-69
2022/10/28 04:46:14;;;;;;;24.20;20.02;;;16.90;99.90;;;;;;5011244;28;20492;-69
2022/10/28 04:48:40;;;;;;;21.80;19.98;;;17.00;99.90;;;;;;5015471;28;20440;-69
2022/10/28 04:51:07;;;;;;;24.70;19.83;;;16.90;99.90;;;;;;5017562;28;20052;-68
2022/10/28 04:53:34;;;;;;;21.20;19.17;;;16.90;99.90;;;;;;5008551;28;20044;-67
2022/10/28 04:56:00;;;;;;;24.27;19.13;;;16.90;99.90;;;;;;5011407;28;20053;-70
2022/10/28 04:58:27;;;;;;;20.23;18.02;;;16.90;99.90;;;;;;5012681;28;20034;-70
2022/10/28 05:00:53;;;;;;;23.58;19.42;;;16.90;99.90;;;;;;5014494;28;20076;-67
2022/10/28 05:03:20;;;;;;;21.23;19.08;;;16.90;99.90;;;;;;5012156;28;20034;-69
2022/10/28 05:05:47;;;;;;;22.33;20.10;;;16.90;99.90;;;;;;5008598;28;20034;-67
2022/10/28 05:08:14;;;;;;;24.60;20.63;;;16.90;99.90;;;;;;5012580;28;20197;-68
2022/10/28 05:10:40;;;;;;;21.67;19.67;;;16.90;99.90;;;;;;5013845;28;20049;-69
2022/10/28 05:13:07;;;;;;;22.30;20.13;;;17.00;99.90;;;;;;5012368;28;20603;-70
2022/10/28 05:15:34;;;;;;;21.83;19.75;;;17.00;99.90;;;;;;5018140;28;20524;-69
2022/10/28 05:18:00;;;;;;;23.17;20.50;;;17.00;99.90;;;;;;5008744;28;20468;-69
2022/10/28 05:20:27;;;;;;;23.02;20.38;;;17.00;99.90;;;;;;5012956;28;20038;-68
2022/10/28 05:22:55;;;;;;;21.73;19.80;;;17.00;99.90;;;;;;5014985;28;20036;-68
2022/10/28 05:25:23;;;;;;;22.05;19.77;;;17.00;99.90;;;;;;5015285;28;20173;-69
2022/10/28 05:27:50;;;;;;;34.30;20.05;;;16.90;99.90;;;;;;5015043;28;20295;-70
2022/10/28 05:30:17;;;;;;;21.48;19.38;;;16.90;99.90;;;;;;5010259;28;20404;-68
2022/10/28 05:32:44;;;;;;;21.83;19.67;;;16.90;99.90;;;;;;5014043;28;20051;-69
2022/10/28 05:35:14;;;;;;;24.38;19.80;;;16.90;99.90;;;;;;5010623;28;20439;-69
2022/10/28 05:37:41;;;;;;;26.40;20.60;;;16.90;99.90;;;;;;5018283;28;20033;-68
2022/10/28 05:40:09;;;;;;;21.55;19.70;;;16.90;99.90;;;;;;5012611;28;20053;-70
2022/10/28 05:42:42;;;;;;;21.83;19.98;;;16.90;99.90;;;;;;5009283;28;20065;-69
2022/10/28 05:45:09;;;;;;;22.67;20.30;;;16.80;99.90;;;;;;5009670;28;20042;-70
2022/10/28 05:47:40;;;;;;;21.85;18.95;;;16.80;99.90;;;;;;5011667;28;20038;-69
2022/10/28 05:50:07;;;;;;;25.45;19.25;;;16.70;99.90;;;;;;5013387;28;20471;-67
2022/10/28 05:52:34;;;;;;;28.45;19.38;;;16.70;99.90;;;;;;5026688;28;20045;-68
2022/10/28 05:55:00;;;;;;;22.52;19.15;;;16.70;99.90;;;;;;5010107;28;20049;-70
2022/10/28 05:57:27;;;;;;;22.50;19.98;;;16.70;99.90;;;;;;5012277;28;20041;-68
2022/10/28 05:59:54;;;;;;;22.20;20.00;;;16.70;99.90;;;;;;5013526;28;20038;-66
2022/10/28 06:02:20;;;;;;;21.42;19.10;;;16.70;99.90;;;;;;5004098;28;20374;-68
2022/10/28 06:04:47;;;;;;;26.38;18.27;;;16.60;99.90;;;;;;5014232;28;20522;-71
2022/10/28 06:07:13;;;;;;;20.38;18.23;;;16.50;99.90;;;;;;5011303;28;20041;-70
2022/10/28 06:09:40;;;;;;;23.42;18.20;;;16.40;99.90;;;;;;5015600;28;20042;-68
2022/10/28 06:12:07;;;;;;;24.42;18.75;;;16.40;99.90;;;;;;5014147;28;20041;-70
2022/10/28 06:14:34;;;;;;;19.73;17.75;;;16.30;99.90;;;;;;5017667;28;20261;-70
2022/10/28 06:17:00;;;;;;;21.88;19.00;;;16.30;99.90;;;;;;5017375;28;20049;-69
2022/10/28 06:19:27;;;;;;;20.40;18.67;;;16.30;99.90;;;;;;5011822;28;20042;-69
2022/10/28 06:21:54;;;;;;;19.67;17.67;;;16.30;99.90;;;;;;5016743;28;20037;-70
2022/10/28 06:24:20;;;;;;;23.05;17.63;;;16.30;99.90;;;;;;5014016;28;20511;-70
2022/10/28 06:26:47;;;;;;;21.27;18.45;;;16.30;99.90;;;;;;5008292;28;20539;-68
2022/10/28 06:29:14;;;;;;;20.67;18.48;;;16.40;99.90;;;;;;5008728;28;20041;-69
2022/10/28 06:31:41;;;;;;;21.10;19.13;;;16.40;99.90;;;;;;5015644;28;20045;-69
2022/10/28 06:34:09;;;;;;;22.63;20.20;;;16.40;99.90;;;;;;5015829;28;20302;-69
2022/10/28 06:36:36;;;;;;;21.92;19.52;;;16.40;99.90;;;;;;5014790;28;20052;-70
2022/10/28 06:39:03;;;;;;;24.90;20.65;;;16.50;99.90;;;;;;5013443;28;20054;-69
2022/10/28 06:41:30;;;;;;;21.52;19.55;;;16.50;99.90;;;;;;5014136;28;20041;-69
2022/10/28 06:43:56;;;;;;;25.58;20.52;;;16.50;99.90;;;;;;5015987;28;20075;-70
2022/10/28 06:46:23;;;;;;;22.90;20.55;;;16.50;99.90;;;;;;5028036;28;20045;-68
2022/10/28 06:48:52;;;;;;;24.10;20.63;;;16.60;99.90;;;;;;5021955;28;20400;-70
2022/10/28 06:51:18;;;;;;;23.02;20.65;;;16.50;99.90;;;;;;5013452;28;20075;-70
2022/10/28 06:53:49;;;;;;;23.13;20.67;;;16.60;99.90;;;;;;5014852;28;20041;-69
2022/10/28 06:56:17;;;;;;;23.35;21.13;;;16.50;99.90;;;;;;5014510;28;20042;-70
2022/10/28 06:58:43;;;;;;;22.60;20.27;;;16.60;99.90;;;;;;5015993;28;20570;-70
2022/10/28 07:01:10;;;;;;;22.55;20.38;;;16.60;99.90;;;;;;5016177;28;20400;-71
2022/10/28 07:03:37;;;;;;;24.40;21.92;;;16.70;99.90;;;;;;5015291;28;20049;-72
2022/10/28 07:06:04;;;;;;;24.55;21.73;;;16.80;99.90;;;;;;5013830;28;20515;-72
2022/10/28 07:08:31;;;;;;;25.17;22.42;;;16.90;99.90;;;;;;5004662;28;20133;-73
2022/10/28 07:10:59;;;;;;;24.58;22.08;;;17.10;99.90;;;;;;5029528;28;20397;-71
2022/10/28 07:13:26;;;;;;;28.90;22.60;;;17.10;99.90;;;;;;5030516;28;20049;-71
2022/10/28 07:15:54;;;;;;;24.67;22.85;;;17.20;99.90;;;;;;5011097;28;20048;-72
2022/10/28 07:18:23;;;;;;;23.88;21.90;;;17.30;99.90;;;;;;5012950;28;20051;-72
2022/10/28 07:20:49;;;;;;;25.50;23.23;;;17.30;99.90;;;;;;5015605;28;20041;-71
2022/10/28 07:23:17;;;;;;;25.52;23.25;;;17.40;99.90;;;;;;5028808;28;20779;-71
2022/10/28 07:25:50;;;;;;;26.80;24.33;;;17.40;99.90;;;;;;5016244;28;20041;-74
2022/10/28 07:28:17;;;;;;;26.45;23.85;;;17.50;99.90;;;;;;5016832;28;20169;-74
2022/10/28 07:30:43;;;;;;;25.45;23.17;;;17.50;99.90;;;;;;5010262;28;20056;-74
2022/10/28 07:33:10;;;;;;;26.58;23.95;;;17.50;99.90;;;;;;5015798;28;20059;-74
2022/10/28 07:35:37;;;;;;;25.95;23.67;;;17.60;99.90;;;;;;5012674;28;20040;-72
2022/10/28 07:38:04;;;;;;;27.45;25.17;;;17.60;99.90;;;;;;5015225;28;20051;-72
2022/10/28 07:40:31;;;;;;;26.33;24.50;;;17.70;99.90;;;;;;5011051;28;20064;-72
2022/10/28 07:42:58;;;;;;;33.53;24.65;;;17.70;99.90;;;;;;5015971;28;20046;-72
2022/10/28 07:45:24;;;;;;;26.20;23.92;;;17.80;99.90;;;;;;5013007;28;20130;-72
2022/10/28 07:47:51;;;;;;;28.23;25.70;;;17.80;99.90;;;;;;4999191;28;20048;-72
2022/10/28 07:50:18;;;;;;;28.05;25.73;;;17.80;99.90;;;;;;5013754;28;20056;-72
2022/10/28 07:52:44;;;;;;;26.45;24.40;;;17.90;99.90;;;;;;5016838;28;20465;-73
2022/10/28 07:55:11;;;;;;;27.25;24.77;;;17.80;99.90;;;;;;5028905;28;20056;-73
2022/10/28 07:57:38;;;;;;;26.50;24.00;;;17.90;99.90;;;;;;5012202;28;20136;-72
2022/10/28 08:00:06;;;;;;;26.58;24.02;;;17.90;99.90;;;;;;5030199;28;20406;-72
2022/10/28 08:02:39;;;;;;;28.40;24.77;;;18.00;99.90;;;;;;5012124;28;20443;-72
2022/10/28 08:05:06;;;;;;;26.98;24.52;;;18.10;99.90;;;;;;5015056;28;20072;-72
2022/10/28 08:07:33;;;;;;;28.40;25.35;;;18.20;99.90;;;;;;5015526;28;20037;-72
2022/10/28 08:10:05;;;;;;;26.63;24.15;;;18.40;99.90;;;;;;5016241;28;20055;-72
2022/10/28 08:12:31;;;;;;;24.83;22.52;;;18.50;99.90;;;;;;5030018;28;20053;-73
2022/10/28 08:14:58;;;;;;;25.83;23.38;;;18.80;99.90;;;;;;5012393;28;20537;-72
2022/10/28 08:17:25;;;;;;;25.00;22.98;;;18.80;99.90;;;;;;5013499;28;20037;-73
2022/10/28 08:19:52;;;;;;;27.77;25.25;;;18.90;99.90;;;;;;5019481;28;20034;-72
2022/10/28 08:22:19;;;;;;;26.50;24.05;;;19.00;99.90;;;;;;5013929;28;20037;-72
2022/10/28 08:24:45;;;;;;;27.00;24.45;;;19.20;99.90;;;;;;5013811;28;20095;-72
2022/10/28 08:27:12;;;;;;;33.30;23.52;;;19.30;99.90;;;;;;5011817;28;20045;-72
2022/10/28 08:29:39;;;;;;;26.27;23.77;;;19.50;99.90;;;;;;5014845;28;20425;-73
2022/10/28 08:32:09;;;;;;;26.90;24.25;;;19.50;99.90;;;;;;5010761;28;20512;-73
2022/10/28 08:34:35;;;;;;;26.45;23.70;;;19.50;99.90;;;;;;5030317;28;20555;-71
2022/10/28 08:37:08;;;;;;;27.17;24.75;;;19.50;99.90;;;;;;5014264;28;20482;-72
2022/10/28 08:39:35;;;;;;;29.40;26.52;;;19.70;99.90;;;;;;5012522;28;20045;-72
2022/10/28 08:42:06;;;;;;;28.95;26.10;;;19.80;99.90;;;;;;5009843;28;20056;-72
2022/10/28 08:44:52;;;;;;;25.80;23.17;;;19.90;99.90;;;;;;5063095;22;20041;-77
2022/10/28 08:47:38;;;;;;;25.75;23.35;;;20.10;99.90;;;;;;5025472;28;20626;-76
2022/10/28 08:50:12;;;;;;;25.60;23.17;;;20.30;99.90;;;;;;5044557;28;20051;-76
2022/10/28 08:52:57;;;;;;;26.45;24.00;;;20.60;99.90;;;;;;5059246;28;20049;-78
2022/10/28 08:55:34;;;;;;;26.00;23.45;;;20.70;99.90;;;;;;5020737;28;20128;-77
2022/10/28 08:58:25;;;;;;;25.42;23.25;;;20.80;99.90;;;;;;5032452;28;20057;-78
2022/10/28 09:00:54;;;;;;;25.83;23.58;;;21.00;99.90;;;;;;5025206;28;20049;-77
2022/10/28 09:03:52;;;;;;;25.95;23.38;;;21.10;99.90;;;;;;5024393;28;20128;-78
2022/10/28 09:06:19;;;;;;;25.88;23.17;;;21.20;99.90;;;;;;5009294;28;20044;-80
2022/10/28 09:08:49;;;;;;;26.02;23.52;;;21.20;99.90;;;;;;5023043;28;20064;-77
2022/10/28 09:11:19;;;;;;;27.00;23.25;;;21.40;99.90;;;;;;5017455;28;20395;-77
2022/10/28 09:13:53;;;;;;;26.13;23.65;;;21.40;99.90;;;;;;5035497;28;20056;-78
2022/10/28 09:16:39;;;;;;;25.95;23.50;;;21.50;99.90;;;;;;5035332;28;20037;-79
2022/10/28 09:19:33;;;;;;;25.50;23.33;;;21.50;99.90;;;;;;5030556;28;20672;-76
2022/10/28 09:22:06;;;;;;;26.33;23.70;;;21.40;99.90;;;;;;5028639;28;20140;-76
2022/10/28 09:24:48;;;;;;;25.63;23.13;;;21.40;99.90;;;;;;5034184;28;20049;-75
2022/10/28 09:28:03;;;;;;;28.10;24.60;;;21.60;99.90;;;;;;5032269;28;20423;-77
2022/10/28 09:30:55;;;;;;;25.88;23.48;;;21.70;99.90;;;;;;5020007;28;20139;-77
2022/10/28 09:33:25;;;;;;;27.60;24.65;;;21.60;99.90;;;;;;5042796;28;20422;-77
2022/10/28 09:35:52;;;;;;;26.73;24.27;;;21.70;99.90;;;;;;5035120;28;20057;-77
2022/10/28 09:38:26;;;;;;;27.80;25.33;;;21.70;99.90;;;;;;5027997;28;20378;-75
2022/10/28 09:41:02;;;;;;;27.77;25.15;;;21.70;99.90;;;;;;5031645;28;21547;-76
2022/10/28 09:43:36;;;;;;;27.77;25.00;;;21.80;99.90;;;;;;5039533;28;20384;-76
2022/10/28 09:46:13;;;;;;;28.50;25.88;;;21.80;99.90;;;;;;5031968;28;20057;-77
2022/10/28 09:48:54;;;;;;;28.27;25.80;;;22.00;99.90;;;;;;5042379;28;20490;-78
2022/10/28 09:51:42;;;;;;;28.48;25.98;;;22.10;99.90;;;;;;5036783;28;20040;-76
2022/10/28 09:54:10;;;;;;;26.83;24.52;;;22.20;99.90;;;;;;5023563;28;20052;-79
2022/10/28 09:56:37;;;;;;;28.15;25.65;;;22.40;99.90;;;;;;5040267;28;20556;-79
2022/10/28 09:59:04;;;;;;;29.63;26.52;;;22.50;99.90;;;;;;5036107;28;20136;-76
2022/10/28 10:01:36;;;;;;;27.40;24.83;;;22.60;99.90;;;;;;5038066;28;20120;-78
2022/10/28 10:04:16;;;;;;;30.23;25.17;;;22.60;99.90;;;;;;5052473;28;20071;-78
2022/10/28 10:06:44;;;;;;;26.75;24.70;;;22.70;99.90;;;;;;5039048;28;20131;-77
2022/10/28 10:09:19;;;;;;;29.42;26.45;;;22.90;99.90;;;;;;5039648;28;20037;-77
2022/10/28 10:11:47;;;;;;;28.63;26.33;;;22.90;99.90;;;;;;5034257;28;20045;-76
2022/10/28 10:14:20;;;;;;;27.65;25.65;;;22.90;99.90;;;;;;5054059;28;20048;-76
2022/10/28 10:16:54;;;;;;;29.80;26.73;;;22.80;99.90;;;;;;5037762;28;20127;-76
2022/10/28 10:19:21;;;;;;;25.52;23.25;;;22.80;99.90;;;;;;5028098;28;20480;-76
2022/10/28 10:21:53;;;;;;;30.23;27.25;;;22.70;99.90;;;;;;5036505;28;20069;-77
2022/10/28 10:24:35;;;;;;;27.23;25.00;;;22.70;99.90;;;;;;5026420;28;20052;-74
2022/10/28 10:27:08;;;;;;;29.50;27.40;;;22.60;99.90;;;;;;5029425;28;20372;-75
2022/10/28 10:29:42;;;;;;;29.38;26.60;;;22.60;99.90;;;;;;5032194;28;20053;-74
2022/10/28 10:32:20;;;;;;;29.30;26.02;;;22.70;99.90;;;;;;5035094;28;20275;-75
2022/10/28 10:34:56;;;;;;;27.92;25.58;;;22.60;99.90;;;;;;5033676;28;20044;-76
2022/10/28 10:37:23;;;;;;;29.23;26.70;;;22.70;99.90;;;;;;5046991;28;20065;-77
2022/10/28 10:40:32;;;;;;;29.63;26.88;;;22.80;99.90;;;;;;5030263;28;20558;-79
2022/10/28 10:43:17;;;;;;;29.67;26.48;;;22.90;99.90;;;;;;5018538;28;20128;-76
2022/10/28 10:46:00;;;;;;;31.77;29.00;;;22.90;99.90;;;;;;5042904;28;20216;-76
2022/10/28 10:48:31;;;;;;;29.88;27.17;;;22.90;99.90;;;;;;5033497;28;20045;-75
2022/10/28 10:51:03;;;;;;;31.20;28.10;;;22.80;99.90;;;;;;5039069;28;20204;-76
2022/10/28 10:53:31;;;;;;;27.27;25.00;;;22.80;99.90;;;;;;5035927;28;20041;-74
2022/10/28 10:56:04;;;;;;;30.95;28.40;;;22.80;99.90;;;;;;5035899;28;20064;-73
2022/10/28 10:58:38;;;;;;;31.40;28.52;;;22.90;99.90;;;;;;5042599;28;20045;-75
2022/10/28 11:01:08;;;;;;;29.40;23.25;;;22.80;99.90;;;;;;5056030;28;20045;-75
2022/10/28 11:03:37;;;;;;;27.85;25.13;;;23.00;99.90;;;;;;5043316;28;20084;-76
2022/10/28 11:06:06;;;;;;;27.23;24.35;;;23.10;99.90;;;;;;5036934;28;20433;-73
2022/10/28 11:08:59;;;;;;;27.10;24.73;;;23.30;99.90;;;;;;5026543;28;20049;-75
2022/10/28 11:11:38;;;;;;;27.63;24.83;;;23.40;99.90;;;;;;5036004;28;20041;-75
2022/10/28 11:14:29;;;;;;;28.50;25.95;;;23.30;99.90;;;;;;5035265;28;20044;-75
2022/10/28 11:16:57;;;;;;;27.45;24.90;;;23.20;99.90;;;;;;5032584;28;20052;-76
2022/10/28 11:19:32;;;;;;;26.98;24.48;;;22.90;99.90;;;;;;5039679;28;20136;-73
2022/10/28 11:22:44;;;;;;;27.75;24.98;;;22.70;99.90;;;;;;5034063;28;20044;-75
2022/10/28 11:25:36;;;;;;;26.85;24.17;;;22.70;99.90;;;;;;5002920;28;20044;-74
2022/10/28 11:28:25;;;;;;;27.17;24.10;;;22.80;99.90;;;;;;5031858;28;20384;-74
2022/10/28 11:31:13;;;;;;;26.38;23.70;;;22.80;99.90;;;;;;5036571;28;20120;-75
2022/10/28 11:34:18;;;;;;;25.88;23.70;;;23.00;99.90;;;;;;5036968;28;20457;-75
2022/10/28 11:36:53;;;;;;;31.65;28.25;;;23.30;99.90;;;;;;5030553;28;20044;-77
2022/10/28 11:39:32;;;;;;;30.55;27.88;;;23.40;99.90;;;;;;5029741;28;20045;-75
2022/10/28 11:42:30;;;;;;;28.77;25.83;;;23.60;99.90;;;;;;5036827;28;20052;-76
2022/10/28 11:45:21;;;;;;;30.40;27.67;;;23.70;99.90;;;;;;5029038;28;20391;-76
2022/10/28 11:48:07;;;;;;;30.17;27.58;;;23.80;99.90;;;;;;5033078;28;20651;-75
2022/10/28 11:50:41;;;;;;;30.38;27.38;;;24.10;99.90;;;;;;5036455;28;20096;-75
2022/10/28 11:53:23;;;;;;;32.20;28.93;;;24.00;99.90;;;;;;5035520;28;20041;-76
2022/10/28 11:55:56;;;;;;;31.05;27.95;;;23.90;99.90;;;;;;5038555;28;20526;-76
2022/10/28 11:58:45;;;;;;;29.63;26.83;;;23.90;99.90;;;;;;5034571;28;20512;-76
2022/10/28 12:02:04;;;;;;;29.98;27.02;;;23.70;99.90;;;;;;5035134;28;20056;-75
2022/10/28 12:04:47;;;;;;;29.40;26.63;;;23.80;99.90;;;;;;4999301;28;20073;-76
2022/10/28 12:07:44;;;;;;;29.58;26.90;;;23.90;99.90;;;;;;5011223;28;20043;-76
2022/10/28 12:10:49;;;;;;;30.27;27.25;;;24.10;99.90;;;;;;5039614;28;20044;-76
2022/10/28 12:13:52;;;;;;;29.75;27.02;;;24.20;99.90;;;;;;5025366;28;20131;-77
2022/10/28 12:16:29;;;;;;;33.47;29.88;;;24.30;99.90;;;;;;5030798;28;20605;-75
2022/10/28 12:19:02;;;;;;;31.83;28.80;;;24.20;99.90;;;;;;5042172;28;20037;-76
2022/10/28 12:21:39;;;;;;;29.42;27.02;;;24.00;99.90;;;;;;5020325;28;20044;-76
2022/10/28 12:24:13;;;;;;;31.42;28.27;;;23.90;99.90;;;;;;5033845;28;20695;-76
2022/10/28 12:26:46;;;;;;;30.73;27.57;;;23.80;99.90;;;;;;5029786;28;20037;-76
2022/10/28 12:29:45;;;;;;;31.38;28.33;;;23.80;99.90;;;;;;5035100;28;20292;-76
2022/10/28 12:32:25;;;;;;;30.17;27.55;;;24.00;99.90;;;;;;5002219;28;20068;-76
2022/10/28 12:34:57;;;;;;;30.42;27.70;;;23.90;99.90;;;;;;5012058;28;20136;-76
2022/10/28 12:37:31;;;;;;;29.77;27.30;;;23.90;99.90;;;;;;5025790;28;20538;-76
2022/10/28 12:40:20;;;;;;;31.45;28.77;;;23.90;99.90;;;;;;5035207;28;20091;-75
2022/10/28 12:42:59;;;;;;;31.75;29.13;;;23.90;99.90;;;;;;5027834;28;20047;-75
2022/10/28 12:45:30;;;;;;;32.25;29.23;;;23.90;99.90;;;;;;5013586;28;20033;-77
2022/10/28 12:48:12;;;;;;;31.58;28.85;;;23.90;99.90;;;;;;5030235;28;20045;-74
2022/10/28 12:50:49;;;;;;;31.92;28.85;;;23.90;99.90;;;;;;5035655;28;20033;-75
2022/10/28 12:53:26;;;;;;;31.02;27.88;;;23.90;99.90;;;;;;5050942;28;20128;-73
2022/10/28 12:55:59;;;;;;;30.45;27.60;;;23.80;99.90;;;;;;5030770;28;20554;-76